Time;durP1;ratioP1;P1;durP2;ratioP2;P2;SDS_P1;SDS_P2;PMS_P1;PMS_P2;Temp;Humidity;BMP_temperature;BMP_pressure;BME280_temperature;BME280_humidity;BME280_pressure;Samples;Min_cycle;Max_cycle;Signal;HPM_P1;HPM_P2
2022/02/25 00:03:07;;;;;;;;;;;4.50;97.10;;;;;;6098309;23;19956;-87
2022/02/25 00:05:43;;;;;;;;;;;;;;;;;;;;;
2022/02/25 00:08:51;;;;;;;;;;;4.40;97.00;;;;;;6026402;23;19984;-88
2022/02/25 00:11:28;;;;;;;;;;;4.50;97.10;;;;;;6074447;23;19909;-88
2022/02/25 00:14:03;;;;;;;;;;;4.40;97.10;;;;;;6126350;23;20294;-88
2022/02/25 00:16:39;;;;;;;;;;;4.40;97.10;;;;;;6131985;23;19979;-87
2022/02/25 00:19:15;;;;;;;;;;;;;;;;;;;;;
2022/02/25 00:21:51;;;;;;;;;;;4.40;97.10;;;;;;6158930;23;19995;-88
2022/02/25 00:24:36;;;;;;;;;;;;;;;;;;;;;
2022/02/25 00:27:11;;;;;;;;;;;4.40;97.00;;;;;;6147760;23;19972;-88
2022/02/25 00:29:46;;;;;;;;;;;4.40;96.90;;;;;;6131671;23;19905;-88
2022/02/25 00:32:17;;;;;;;;;;;4.40;96.90;;;;;;6109224;23;20319;-87
2022/02/25 00:34:48;;;;;;;;;;;4.40;96.90;;;;;;6132699;23;19909;-89
2022/02/25 00:37:28;;;;;;;;;;;4.30;96.90;;;;;;6108847;23;20042;-88
2022/02/25 00:40:02;;;;;;;;;;;4.30;96.90;;;;;;6132241;23;19939;-87
2022/02/25 00:42:31;;;;;;;;;;;4.30;96.80;;;;;;6109100;23;19909;-87
2022/02/25 00:44:59;;;;;;;;;;;4.30;96.80;;;;;;6132463;23;19980;-88
2022/02/25 00:47:32;;;;;;;;;;;4.30;96.80;;;;;;6108403;23;20327;-87
2022/02/25 00:50:10;;;;;;;;;;;4.30;96.70;;;;;;6108955;23;19967;-87
2022/02/25 00:52:45;;;;;;;;;;;4.30;96.80;;;;;;6110804;23;20312;-87
2022/02/25 00:55:18;;;;;;;;;;;4.30;96.80;;;;;;6110799;23;19908;-87
2022/02/25 00:57:55;;;;;;;;;;;4.40;96.80;;;;;;6159425;23;19905;-87
2022/02/25 01:00:32;;;;;;;;;;;4.40;96.80;;;;;;6132973;23;19913;-87
2022/02/25 01:06:16;;;;;;;;;;;;;;;;;;;;;
2022/02/25 01:08:43;;;;;;;;;;;4.40;96.70;;;;;;5123667;28;19959;-87
2022/02/25 01:11:24;;;;;;;;;;;;;;;;;;;;;
2022/02/25 01:14:27;;;;;;;;;;;;;;;;;;;;;
2022/02/25 01:23:10;;;;;;;;;;;;;;;;;;;;;
2022/02/25 01:25:48;;;;;;;;;;;4.30;96.50;;;;;;5123313;28;19979;-88
2022/02/25 01:34:27;;;;;;;;;;;4.20;96.60;;;;;;5140159;28;19914;-87
2022/02/25 01:37:25;;;;;;;;;;;4.30;96.90;;;;;;5146131;28;19908;-86
2022/02/25 01:39:58;;;;;;;;;;;4.20;96.60;;;;;;5125234;28;19908;-86
2022/02/25 01:45:24;;;;;;;;;;;4.20;96.70;;;;;;5111625;28;19966;-88
2022/02/25 01:48:04;;;;;;;;;;;;;;;;;;;;;
2022/02/25 01:50:53;;;;;;;;;;;4.10;96.70;;;;;;5122760;28;20454;-88
2022/02/25 01:53:29;;;;;;;;;;;4.20;96.80;;;;;;5101621;28;19912;-87
2022/02/25 01:59:00;;;;;;;;;;;4.10;96.70;;;;;;5092572;28;19908;-87
2022/02/25 02:01:46;;;;;;;;;;;4.20;96.70;;;;;;5095750;28;19909;-88
2022/02/25 02:04:28;;;;;;;;;;;;;;;;;;;;;
2022/02/25 02:07:09;;;;;;;;;;;4.10;96.70;;;;;;5112671;28;19915;-86
2022/02/25 02:09:50;;;;;;;;;;;4.20;96.80;;;;;;5094627;28;19930;-87
2022/02/25 02:12:21;;;;;;;;;;;4.20;96.80;;;;;;5094360;28;20002;-87
2022/02/25 02:15:07;;;;;;;;;;;4.10;96.70;;;;;;5110971;28;19916;-87
2022/02/25 02:17:46;;;;;;;;;;;4.10;96.70;;;;;;5100917;28;19914;-86
2022/02/25 02:20:25;;;;;;;;;;;;;;;;;;;;;
2022/02/25 02:22:55;;;;;;;;;;;4.10;96.80;;;;;;5119315;28;19987;-86
2022/02/25 02:25:31;;;;;;;;;;;4.10;96.80;;;;;;5077931;28;19959;-88
2022/02/25 02:28:28;;;;;;;;;;;;;;;;;;;;;
2022/02/25 02:31:01;;;;;;;;;;;4.10;96.80;;;;;;5098909;28;19998;-86
2022/02/25 02:33:36;;;;;;;;;;;4.10;96.80;;;;;;5085232;28;19908;-87
2022/02/25 02:39:18;;;;;;;;;;;4.10;97.10;;;;;;5107759;28;19892;-94
2022/02/25 02:44:49;;;;;;;;;;;;;;;;;;;;;
2022/02/25 02:47:20;;;;;;;;;;;4.10;97.10;;;;;;5113930;28;19951;-87
2022/02/25 02:50:12;;;;;;;;;;;4.10;97.10;;;;;;5083367;28;20364;-88
2022/02/25 02:53:01;;;;;;;;;;;4.10;97.10;;;;;;5098562;28;19912;-87
2022/02/25 02:55:29;;;;;;;;;;;4.00;97.00;;;;;;5080737;28;19911;-88
2022/02/25 03:01:04;;;;;;;;;;;4.00;97.10;;;;;;5103362;28;20018;-87
2022/02/25 03:03:45;;;;;;;;;;;;;;;;;;;;;
2022/02/25 03:06:34;;;;;;;;;;;4.00;97.10;;;;;;5102653;28;19918;-87
2022/02/25 03:15:08;;;;;;;;;;;4.10;97.10;;;;;;5101124;28;20263;-88
2022/02/25 03:17:42;;;;;;;;;;;4.10;97.00;;;;;;5099325;28;19919;-88
2022/02/25 03:20:37;;;;;;;;;;;4.10;97.10;;;;;;5098997;28;20374;-87
2022/02/25 03:23:08;;;;;;;;;;;4.00;97.00;;;;;;5087667;28;19912;-87
2022/02/25 03:26:04;;;;;;;;;;;;;;;;;;;;;
2022/02/25 03:29:09;;;;;;;;;;;;;;;;;;;;;
2022/02/25 03:31:24;;;;;;;;;;;4.00;97.10;;;;;;5111854;28;19942;-88
2022/02/25 03:34:26;;;;;;;;;;;4.00;97.20;;;;;;5098458;28;20343;-88
2022/02/25 03:37:01;;;;;;;;;;;4.10;97.20;;;;;;5078430;28;20267;-87
2022/02/25 03:40:03;;;;;;;;;;;;;;;;;;;;;
2022/02/25 03:42:55;;;;;;;;;;;4.00;97.10;;;;;;5096829;28;19908;-87
2022/02/25 03:48:37;;;;;;;;;;;;;;;;;;;;;
2022/02/25 03:51:08;;;;;;;;;;;4.10;97.00;;;;;;5096827;28;19930;-87
2022/02/25 03:54:21;;;;;;;;;;;;;;;;;;;;;
2022/02/25 03:56:42;;;;;;;;;;;4.00;97.00;;;;;;5081038;28;20355;-88
2022/02/25 03:59:30;;;;;;;;;;;;;;;;;;;;;
2022/02/25 04:05:20;;;;;;;;;;;;;;;;;;;;;
2022/02/25 04:11:19;;;;;;;;;;;4.00;97.00;;;;;;5117045;28;19896;-89
2022/02/25 04:13:53;;;;;;;;;;;4.00;97.00;;;;;;5087485;28;19938;-89
2022/02/25 04:16:21;;;;;;;;;;;4.00;97.00;;;;;;5078450;28;19915;-89
2022/02/25 04:19:06;;;;;;;;;;;;;;;;;;;;;
2022/02/25 04:27:27;;;;;;;;;;;4.00;97.10;;;;;;5115290;28;20016;-88
2022/02/25 04:35:56;;;;;;;;;;;3.90;97.10;;;;;;5104609;28;19915;-85
2022/02/25 04:38:31;;;;;;;;;;;3.90;97.20;;;;;;5074341;28;19999;-88
2022/02/25 04:41:17;;;;;;;;;;;;;;;;;;;;;
2022/02/25 04:43:53;;;;;;;;;;;;;;;;;;;;;
2022/02/25 04:46:37;;;;;;;;;;;;;;;;;;;;;
2022/02/25 04:49:26;;;;;;;;;;;3.90;97.20;;;;;;5095365;28;19908;-87
2022/02/25 04:55:27;;;;;;;;;;;;;;;;;;;;;
2022/02/25 04:58:25;;;;;;;;;;;3.90;97.30;;;;;;5095663;28;19919;-87
2022/02/25 05:00:51;;;;;;;;;;;3.90;97.30;;;;;;5090138;28;20002;-87
2022/02/25 05:03:47;;;;;;;;;;;;;;;;;;;;;
2022/02/25 05:06:41;;;;;;;;;;;3.90;97.30;;;;;;5084836;28;19920;-88
2022/02/25 05:09:44;;;;;;;;;;;3.90;97.30;;;;;;5077183;28;19908;-86
2022/02/25 05:12:44;;;;;;;;;;;3.90;97.40;;;;;;5077383;28;20352;-86
2022/02/25 05:21:18;;;;;;;;;;;;;;;;;;;;;
2022/02/25 05:24:42;;;;;;;;;;;;;;;;;;;;;
2022/02/25 05:26:47;;;;;;;;;;;;;;;;;;;;;
2022/02/25 05:29:36;;;;;;;;;;;3.90;97.40;;;;;;5116697;27;19955;-91
2022/02/25 05:32:30;;;;;;;;;;;3.90;97.40;;;;;;5108898;27;19979;-86
2022/02/25 05:35:14;;;;;;;;;;;;;;;;;;;;;
2022/02/25 05:38:07;;;;;;;;;;;3.90;97.50;;;;;;5091565;28;20018;-87
2022/02/25 05:43:44;;;;;;;;;;;3.90;97.60;;;;;;5083180;28;19920;-89
2022/02/25 05:49:34;;;;;;;;;;;;;;;;;;;;;
2022/02/25 05:55:18;;;;;;;;;;;3.90;97.90;;;;;;5094253;28;19957;-91
2022/02/25 06:09:54;;;;;;;;;;;4.00;97.70;;;;;;5016760;28;19929;-87
2022/02/25 06:12:37;;;;;;;;;;;4.10;97.80;;;;;;5017673;28;19916;-88
2022/02/25 06:15:24;;;;;;;;;;;4.10;97.80;;;;;;5093096;28;20355;-88
2022/02/25 06:18:22;;;;;;;;;;;;;;;;;;;;;
2022/02/25 06:21:19;;;;;;;;;;;;;;;;;;;;;
2022/02/25 06:27:13;;;;;;;;;;;;;;;;;;;;;
2022/02/25 06:30:20;;;;;;;;;;;4.30;98.10;;;;;;5119534;28;19914;-87
2022/02/25 06:32:46;;;;;;;;;;;4.30;98.20;;;;;;5102033;28;20364;-87
2022/02/25 06:35:48;;;;;;;;;;;;;;;;;;;;;
2022/02/25 06:39:34;;;;;;;;;;;4.30;98.40;;;;;;5118286;28;19907;-86
2022/02/25 06:41:51;;;;;;;;;;;4.30;98.50;;;;;;5109130;28;19911;-87
2022/02/25 06:44:42;;;;;;;;;;;4.30;98.60;;;;;;5079235;28;19927;-88
2022/02/25 06:47:23;;;;;;;;;;;;;;;;;;;;;
2022/02/25 06:50:33;;;;;;;;;;;4.40;98.80;;;;;;5082721;28;19995;-88
2022/02/25 06:53:50;;;;;;;;;;;4.40;99.00;;;;;;5103809;28;19904;-88
2022/02/25 06:56:03;;;;;;;;;;;4.40;99.10;;;;;;5094903;28;19959;-89
2022/02/25 06:58:34;;;;;;;;;;;4.40;99.40;;;;;;5087423;28;19900;-88
2022/02/25 07:07:20;;;;;;;;;;;;;;;;;;;;;
2022/02/25 07:10:12;;;;;;;;;;;4.50;99.90;;;;;;5081245;28;19922;-88
2022/02/25 07:16:09;;;;;;;;;;;;;;;;;;;;;
2022/02/25 07:19:26;;;;;;;;;;;;;;;;;;;;;
2022/02/25 07:22:14;;;;;;;;;;;4.60;99.90;;;;;;5091134;28;19934;-88
2022/02/25 07:24:56;;;;;;;;;;;4.70;99.90;;;;;;5078734;28;20429;-88
2022/02/25 07:27:48;;;;;;;;;;;4.70;99.90;;;;;;5077417;28;19916;-89
2022/02/25 07:30:23;;;;;;;;;;;4.70;99.90;;;;;;5086114;28;20371;-88
2022/02/25 07:35:47;;;;;;;;;;;4.80;99.90;;;;;;5116821;28;19911;-86
2022/02/25 07:38:21;;;;;;;;;;;4.80;99.90;;;;;;5098910;28;19957;-89
2022/02/25 07:40:57;;;;;;;;;;;;;;;;;;;;;
2022/02/25 07:43:44;;;;;;;;;;;;;;;;;;;;;
2022/02/25 07:46:29;;;;;;;;;;;4.90;99.90;;;;;;5102869;28;20370;-89
2022/02/25 07:55:14;;;;;;;;;;;;;;;;;;;;;
2022/02/25 07:58:05;;;;;;;;;;;5.10;99.90;;;;;;5112594;28;19908;-88
2022/02/25 08:00:43;;;;;;;;;;;5.10;99.90;;;;;;5078242;28;19943;-88
2022/02/25 08:06:47;;;;;;;;;;;;;;;;;;;;;
2022/02/25 08:09:49;;;;;;;;;;;;;;;;;;;;;
2022/02/25 08:12:43;;;;;;;;;;;;;;;;;;;;;
2022/02/25 08:15:28;;;;;;;;;;;5.30;99.90;;;;;;5099538;28;20011;-86
2022/02/25 08:27:24;;;;;;;;;;;;;;;;;;;;;
2022/02/25 08:30:01;;;;;;;;;;;5.70;99.90;;;;;;5079707;28;19918;-89
2022/02/25 08:33:03;;;;;;;;;;;;;;;;;;;;;
2022/02/25 08:35:57;;;;;;;;;;;;;;;;;;;;;
2022/02/25 08:38:58;;;;;;;;;;;5.80;99.90;;;;;;5078050;28;20360;-86
2022/02/25 08:45:09;;;;;;;;;;;;;;;;;;;;;
2022/02/25 08:54:16;;;;;;;;;;;6.30;99.90;;;;;;5054453;28;19916;-87
2022/02/25 09:06:10;;;;;;;;;;;;;;;;;;;;;
2022/02/25 09:12:24;;;;;;;;;;;6.70;99.20;;;;;;4900265;29;19917;-87
2022/02/25 09:15:23;;;;;;;;;;;;;;;;;;;;;
2022/02/25 09:18:22;;;;;;;;;;;;;;;;;;;;;
2022/02/25 09:21:07;;;;;;;;;;;;;;;;;;;;;
2022/02/25 09:26:43;;;;;;;;;;;7.00;98.70;;;;;;5062492;28;19959;-89
2022/02/25 09:29:39;;;;;;;;;;;;;;;;;;;;;
2022/02/25 09:32:37;;;;;;;;;;;;;;;;;;;;;
2022/02/25 09:35:24;;;;;;;;;;;7.30;98.40;;;;;;5079685;28;19919;-89
2022/02/25 09:38:00;;;;;;;;;;;7.40;98.30;;;;;;5078768;28;19916;-88
2022/02/25 09:40:49;;;;;;;;;;;;;;;;;;;;;
2022/02/25 09:46:29;;;;;;;;;;;7.50;97.50;;;;;;5071717;28;19913;-88
2022/02/25 09:49:24;;;;;;;;;;;7.60;97.50;;;;;;5116224;27;19896;-88
2022/02/25 09:52:10;;;;;;;;;;;;;;;;;;;;;
2022/02/25 09:55:06;;;;;;;;;;;7.60;96.80;;;;;;5119825;28;19932;-87
2022/02/25 10:00:56;;;;;;;;;;;;;;;;;;;;;
2022/02/25 10:03:48;;;;;;;;;;;7.50;96.80;;;;;;5078224;28;19916;-88
2022/02/25 10:06:24;;;;;;;;;;;7.50;96.90;;;;;;5068682;28;19927;-89
2022/02/25 10:09:00;;;;;;;;;;;7.40;97.00;;;;;;5077247;28;19913;-90
2022/02/25 10:21:20;;;;;;;;;;;;;;;;;;;;;
2022/02/25 10:24:22;;;;;;;;;;;;;;;;;;;;;
2022/02/25 10:27:11;;;;;;;;;;;7.30;96.80;;;;;;5097018;28;19908;-89
2022/02/25 10:33:11;;;;;;;;;;;7.30;97.10;;;;;;5067260;28;19912;-86
2022/02/25 10:36:07;;;;;;;;;;;7.30;97.20;;;;;;5090254;28;19909;-88
2022/02/25 10:38:58;;;;;;;;;;;7.30;97.30;;;;;;5085864;28;19920;-87
2022/02/25 10:42:03;;;;;;;;;;;7.30;97.30;;;;;;5093384;28;19954;-87
2022/02/25 10:45:17;;;;;;;;;;;;;;;;;;;;;
2022/02/25 10:48:07;;;;;;;;;;;7.30;97.40;;;;;;5077360;28;19915;-89
2022/02/25 10:51:12;;;;;;;;;;;7.30;97.40;;;;;;5074782;28;19912;-88
2022/02/25 10:53:54;;;;;;;;;;;7.30;97.60;;;;;;5097216;28;20002;-88
2022/02/25 10:59:35;;;;;;;;;;;;;;;;;;;;;
2022/02/25 11:02:03;;;;;;;;;;;7.20;97.40;;;;;;5098917;28;19916;-87
2022/02/25 11:05:25;;;;;;;;;;;7.10;97.50;;;;;;5099435;28;19916;-87
2022/02/25 11:08:09;;;;;;;;;;;7.10;97.60;;;;;;5121386;28;20441;-85
2022/02/25 11:11:01;;;;;;;;;;;7.10;97.70;;;;;;5058435;28;19912;-84
2022/02/25 11:16:22;;;;;;;;;;;;;;;;;;;;;
2022/02/25 11:22:27;;;;;;;;;;;;;;;;;;;;;
2022/02/25 11:24:53;;;;;;;;;;;7.00;98.20;;;;;;5120754;28;20002;-91
2022/02/25 11:27:32;;;;;;;;;;;6.90;98.40;;;;;;5102425;28;19900;-88
2022/02/25 11:30:21;;;;;;;;;;;6.90;98.60;;;;;;5101628;28;19918;-88
2022/02/25 11:32:51;;;;;;;;;;;6.80;98.90;;;;;;5078449;28;19915;-88
2022/02/25 11:35:26;;;;;;;;;;;6.80;99.10;;;;;;5100207;28;19908;-89
2022/02/25 11:41:18;;;;;;;;;;;6.70;99.40;;;;;;5117833;28;19908;-89
2022/02/25 11:44:22;;;;;;;;;;;6.70;99.50;;;;;;5098553;28;19916;-89
2022/02/25 11:47:28;;;;;;;;;;;6.70;99.60;;;;;;4998499;28;19993;-90
2022/02/25 11:49:59;;;;;;;;;;;6.70;99.70;;;;;;5009596;28;19909;-89
2022/02/25 11:53:07;;;;;;;;;;;;;;;;;;;;;
2022/02/25 11:59:21;;;;;;;;;;;;;;;;;;;;;
2022/02/25 12:02:18;;;;;;;;;;;;;;;;;;;;;
2022/02/25 12:05:07;;;;;;;;;;;6.80;99.90;;;;;;5097504;28;19916;-86
2022/02/25 12:07:51;;;;;;;;;;;;;;;;;;;;;
2022/02/25 12:10:46;;;;;;;;;;;6.80;99.90;;;;;;5075173;28;19912;-87
2022/02/25 12:13:44;;;;;;;;;;;6.80;99.90;;;;;;5069467;28;19927;-86
2022/02/25 12:16:37;;;;;;;;;;;6.90;99.90;;;;;;5067932;28;19915;-86
2022/02/25 12:19:21;;;;;;;;;;;7.00;99.90;;;;;;5074347;28;19912;-88
2022/02/25 12:28:17;;;;;;;;;;;7.20;99.90;;;;;;5074988;28;19912;-86
2022/02/25 12:40:10;;;;;;;;;;;7.60;99.90;;;;;;5093131;28;19908;-88
2022/02/25 12:43:18;;;;;;;;;;;;;;;;;;;;;
2022/02/25 12:46:17;;;;;;;;;;;;;;;;;;;;;
2022/02/25 12:49:02;;;;;;;;;;;7.70;99.90;;;;;;5110845;28;19932;-88
2022/02/25 12:51:48;;;;;;;;;;;7.70;99.90;;;;;;5115703;28;19908;-89
2022/02/25 12:54:39;;;;;;;;;;;7.80;99.90;;;;;;5108478;28;19908;-88
2022/02/25 13:04:05;;;;;;;;;;;7.80;99.60;;;;;;5084596;28;19912;-89
2022/02/25 13:07:10;;;;;;;;;;;7.80;99.50;;;;;;5100787;28;19969;-87
2022/02/25 13:09:47;;;;;;;;;;;7.70;99.20;;;;;;5115339;28;20362;-87
2022/02/25 13:12:21;;;;;;;;;;;7.70;99.20;;;;;;5097697;28;19915;-88
2022/02/25 13:14:53;;;;;;;;;;;7.70;99.10;;;;;;5081904;28;20399;-87
2022/02/25 13:20:51;;;;;;;;;;;7.70;99.10;;;;;;5083480;28;19946;-89
2022/02/25 13:29:40;;;;;;;;;;;8.10;99.10;;;;;;5113381;28;19953;-87
2022/02/25 13:32:24;;;;;;;;;;;8.10;99.10;;;;;;5116569;28;19916;-89
2022/02/25 13:35:03;;;;;;;;;;;8.20;99.10;;;;;;5098002;28;19907;-87
2022/02/25 13:41:30;;;;;;;;;;;;;;;;;;;;;
2022/02/25 13:44:27;;;;;;;;;;;8.50;99.10;;;;;;5011005;28;19918;-86
2022/02/25 13:53:20;;;;;;;;;;;;;;;;;;;;;
2022/02/25 13:59:28;;;;;;;;;;;;;;;;;;;;;
2022/02/25 14:02:47;;;;;;;;;;;8.50;98.20;;;;;;5027685;28;20393;-87
2022/02/25 14:05:14;;;;;;;;;;;8.50;97.80;;;;;;5037174;28;19917;-84
2022/02/25 14:11:00;;;;;;;;;;;;;;;;;;;;;
2022/02/25 14:13:52;;;;;;;;;;;8.30;95.40;;;;;;5104586;28;19998;-86
2022/02/25 14:16:30;;;;;;;;;;;8.20;95.50;;;;;;5094052;28;19908;-88
2022/02/25 14:19:16;;;;;;;;;;;8.20;95.80;;;;;;5101932;28;20364;-88
2022/02/25 14:21:44;;;;;;;;;;;8.20;95.30;;;;;;5111763;28;19901;-86
2022/02/25 14:24:42;;;;;;;;;;;8.00;94.40;;;;;;5104111;28;19919;-90
2022/02/25 14:27:49;;;;;;;;;;;7.90;94.60;;;;;;5103756;28;19960;-88
2022/02/25 14:30:32;;;;;;;;;;;7.80;94.90;;;;;;5100711;28;19908;-87
2022/02/25 14:33:20;;;;;;;;;;;7.70;95.20;;;;;;4999698;28;19909;-87
2022/02/25 14:36:03;;;;;;;;;;;7.70;95.40;;;;;;5070575;28;20366;-88
2022/02/25 14:38:36;;;;;;;;;;;7.70;95.60;;;;;;5079957;28;20006;-87
2022/02/25 14:41:05;;;;;;;;;;;7.60;95.60;;;;;;5098248;28;19995;-87
2022/02/25 14:43:51;;;;;;;;;;;7.60;95.70;;;;;;5078693;28;19929;-89
2022/02/25 14:46:50;;;;;;;;;;;7.60;95.80;;;;;;5063526;28;19912;-88
2022/02/25 14:49:50;;;;;;;;;;;;;;;;;;;;;
2022/02/25 14:52:31;;;;;;;;;;;7.60;96.20;;;;;;5075698;28;20376;-89
2022/02/25 15:01:46;;;;;;;;;;;8.10;96.70;;;;;;5098441;28;19912;-86
2022/02/25 15:04:22;;;;;;;;;;;8.30;96.70;;;;;;5073272;28;20419;-87
2022/02/25 15:06:50;;;;;;;;;;;8.40;96.60;;;;;;5079672;28;19920;-87
2022/02/25 15:09:25;;;;;;;;;;;8.40;96.30;;;;;;5062727;28;19912;-87
2022/02/25 15:12:22;;;;;;;;;;;;;;;;;;;;;
2022/02/25 15:14:53;;;;;;;;;;;8.40;96.10;;;;;;5089005;28;19930;-88
2022/02/25 15:17:55;;;;;;;;;;;8.40;96.00;;;;;;5079239;28;19908;-88
2022/02/25 15:20:30;;;;;;;;;;;8.40;96.00;;;;;;5079214;28;20407;-88
2022/02/25 15:23:01;;;;;;;;;;;8.50;96.00;;;;;;5061506;28;19912;-89
2022/02/25 15:25:38;;;;;;;;;;;8.50;96.00;;;;;;5097355;28;19925;-87
2022/02/25 15:28:13;;;;;;;;;;;8.60;96.10;;;;;;5079494;28;19908;-87
2022/02/25 15:30:55;;;;;;;;;;;;;;;;;;;;;
2022/02/25 15:36:23;;;;;;;;;;;8.60;96.30;;;;;;5088737;28;19912;-87
2022/02/25 15:39:06;;;;;;;;;;;;;;;;;;;;;
2022/02/25 15:41:57;;;;;;;;;;;8.50;95.80;;;;;;5101586;28;19912;-86
2022/02/25 15:44:32;;;;;;;;;;;8.50;95.60;;;;;;5099696;28;19919;-86
2022/02/25 15:47:11;;;;;;;;;;;8.50;94.70;;;;;;5110390;28;19940;-85
2022/02/25 15:49:48;;;;;;;;;;;8.50;94.90;;;;;;5121318;28;19916;-88
2022/02/25 15:52:29;;;;;;;;;;;8.40;94.90;;;;;;5122839;28;19895;-87
2022/02/25 15:57:51;;;;;;;;;;;8.50;94.90;;;;;;5104857;28;19896;-89
2022/02/25 16:03:10;;;;;;;;;;;8.40;94.60;;;;;;5076471;28;19912;-88
2022/02/25 16:08:29;;;;;;;;;;;8.40;94.10;;;;;;5116544;28;19924;-89
2022/02/25 16:11:06;;;;;;;;;;;8.30;94.00;;;;;;5098106;28;19976;-88
2022/02/25 16:14:00;;;;;;;;;;;8.30;93.60;;;;;;5082744;28;19912;-86
2022/02/25 16:17:11;;;;;;;;;;;;;;;;;;;;;
2022/02/25 16:19:35;;;;;;;;;;;8.00;92.60;;;;;;5105611;28;19919;-88
2022/02/25 16:22:03;;;;;;;;;;;8.00;92.90;;;;;;5095602;28;19918;-85
2022/02/25 16:24:29;;;;;;;;;;;7.90;93.00;;;;;;5101875;28;19916;-88
2022/02/25 16:30:13;;;;;;;;;;;7.90;93.20;;;;;;5052571;28;19921;-88
2022/02/25 16:33:04;;;;;;;;;;;7.80;93.50;;;;;;5072944;28;19957;-87
2022/02/25 16:35:47;;;;;;;;;;;7.80;93.70;;;;;;5085061;28;20386;-89
2022/02/25 16:38:28;;;;;;;;;;;;;;;;;;;;;
2022/02/25 16:41:12;;;;;;;;;;;7.70;93.90;;;;;;5116534;28;19908;-88
2022/02/25 16:43:43;;;;;;;;;;;7.70;93.90;;;;;;5086275;28;19912;-87
2022/02/25 16:46:11;;;;;;;;;;;7.70;93.90;;;;;;5078393;28;20407;-86
2022/02/25 16:48:39;;;;;;;;;;;7.70;94.00;;;;;;5065696;28;19919;-87
2022/02/25 16:51:08;;;;;;;;;;;7.60;94.20;;;;;;5082764;28;19958;-87
2022/02/25 16:53:47;;;;;;;;;;;7.60;94.30;;;;;;5093054;28;19908;-86
2022/02/25 17:02:03;;;;;;;;;;;7.50;94.60;;;;;;5109745;28;19912;-84
2022/02/25 17:04:45;;;;;;;;;;;7.50;94.70;;;;;;5079334;28;19920;-85
2022/02/25 17:07:26;;;;;;;;;;;;;;;;;;;;;
2022/02/25 17:10:36;;;;;;;;;;;7.40;94.90;;;;;;5106615;28;20010;-85
2022/02/25 17:13:20;;;;;;;;;;;7.30;94.90;;;;;;5110822;28;20332;-85
2022/02/25 17:16:46;;;;;;;;;;;;;;;;;;;;;
2022/02/25 17:19:35;;;;;;;;;;;7.30;95.10;;;;;;5067047;28;19912;-87
2022/02/25 17:22:17;;;;;;;;;;;7.20;95.10;;;;;;5058363;28;19916;-87
2022/02/25 17:25:19;;;;;;;;;;;;;;;;;;;;;
2022/02/25 17:31:03;;;;;;;;;;;7.20;95.20;;;;;;5112932;28;19920;-87
2022/02/25 17:42:31;;;;;;;;;;;7.20;95.20;;;;;;5013077;28;20419;-87
2022/02/25 17:45:01;;;;;;;;;;;7.10;95.20;;;;;;5088516;28;19920;-88
2022/02/25 17:59:55;;;;;;;;;;;7.10;95.40;;;;;;4989044;28;19925;-86
2022/02/25 18:02:52;;;;;;;;;;;;;;;;;;;;;
2022/02/25 18:08:21;;;;;;;;;;;7.00;95.50;;;;;;5109018;28;19920;-87
2022/02/25 18:10:51;;;;;;;;;;;7.00;95.50;;;;;;5082778;28;19920;-87
2022/02/25 18:16:03;;;;;;;;;;;6.90;95.60;;;;;;5112709;28;19916;-89
2022/02/25 18:18:33;;;;;;;;;;;6.90;95.70;;;;;;5087218;28;20002;-88
2022/02/25 18:21:16;;;;;;;;;;;6.90;95.80;;;;;;5063968;28;19912;-86
2022/02/25 18:23:49;;;;;;;;;;;6.90;95.90;;;;;;5089293;28;19936;-87
2022/02/25 18:26:25;;;;;;;;;;;;;;;;;;;;;
2022/02/25 18:29:11;;;;;;;;;;;6.90;96.00;;;;;;5109542;28;20401;-87
2022/02/25 18:31:49;;;;;;;;;;;6.80;96.00;;;;;;5065182;28;19912;-87
2022/02/25 18:34:24;;;;;;;;;;;6.80;96.10;;;;;;5094780;28;19962;-88
2022/02/25 18:37:08;;;;;;;;;;;;;;;;;;;;;
2022/02/25 18:39:49;;;;;;;;;;;6.80;96.20;;;;;;5109339;28;19915;-87
2022/02/25 18:42:18;;;;;;;;;;;6.80;96.20;;;;;;5081368;28;19915;-86
2022/02/25 18:44:46;;;;;;;;;;;6.80;96.10;;;;;;5080425;28;19916;-88
2022/02/25 18:47:17;;;;;;;;;;;6.80;96.20;;;;;;5065681;28;19965;-87
2022/02/25 18:49:45;;;;;;;;;;;6.80;96.10;;;;;;5089309;28;19973;-86
2022/02/25 18:52:22;;;;;;;;;;;6.80;96.10;;;;;;5083561;28;19965;-87
2022/02/25 18:54:57;;;;;;;;;;;6.80;96.20;;;;;;5094631;28;19892;-87
2022/02/25 18:57:29;;;;;;;;;;;6.80;96.20;;;;;;5102704;28;19966;-87
2022/02/25 19:00:05;;;;;;;;;;;6.80;96.20;;;;;;5108340;28;19925;-89
2022/02/25 19:02:43;;;;;;;;;;;;;;;;;;;;;
2022/02/25 19:05:19;;;;;;;;;;;6.80;96.30;;;;;;5118970;28;19923;-87
2022/02/25 19:08:05;;;;;;;;;;;6.80;96.20;;;;;;5083180;28;20353;-87
2022/02/25 19:10:49;;;;;;;;;;;6.80;96.20;;;;;;5094259;28;19909;-87
2022/02/25 19:13:21;;;;;;;;;;;6.80;96.30;;;;;;5079763;28;19947;-85
2022/02/25 19:15:58;;;;;;;;;;;6.80;96.30;;;;;;5081061;28;19951;-87
2022/02/25 19:19:11;;;;;;;;;;;6.70;96.30;;;;;;5081272;28;19908;-86
2022/02/25 19:21:42;;;;;;;;;;;6.70;96.30;;;;;;5096362;28;19959;-87
2022/02/25 19:24:11;;;;;;;;;;;6.70;96.30;;;;;;5096211;28;19926;-88
2022/02/25 19:26:37;;;;;;;;;;;6.60;96.30;;;;;;5099589;28;20003;-88
2022/02/25 19:29:12;;;;;;;;;;;6.60;96.30;;;;;;5099018;28;19977;-87
2022/02/25 19:34:26;;;;;;;;;;;6.50;96.40;;;;;;5118523;28;19918;-85
2022/02/25 19:36:57;;;;;;;;;;;6.50;96.40;;;;;;5081446;28;20419;-87
2022/02/25 19:39:33;;;;;;;;;;;;;;;;;;;;;
2022/02/25 19:42:09;;;;;;;;;;;6.50;96.50;;;;;;5096872;28;19912;-88
2022/02/25 19:44:45;;;;;;;;;;;6.50;96.50;;;;;;5079206;28;20011;-87
2022/02/25 19:47:31;;;;;;;;;;;6.50;96.60;;;;;;5079415;28;19909;-86
2022/02/25 19:50:07;;;;;;;;;;;6.40;96.60;;;;;;5079339;28;19912;-87
2022/02/25 19:52:39;;;;;;;;;;;6.40;96.60;;;;;;5079248;28;19912;-87
2022/02/25 19:55:06;;;;;;;;;;;6.30;96.60;;;;;;5078552;28;19909;-86
2022/02/25 19:58:20;;;;;;;;;;;;;;;;;;;;;
2022/02/25 20:00:54;;;;;;;;;;;;;;;;;;;;;
2022/02/25 20:03:28;;;;;;;;;;;6.30;96.80;;;;;;5117476;28;19907;-87
2022/02/25 20:05:55;;;;;;;;;;;6.20;96.80;;;;;;5081898;28;19967;-86
2022/02/25 20:08:38;;;;;;;;;;;6.20;96.90;;;;;;5095098;28;19924;-87
2022/02/25 20:11:24;;;;;;;;;;;6.10;97.00;;;;;;5095274;28;19908;-87
2022/02/25 20:16:40;;;;;;;;;;;6.00;97.10;;;;;;5076367;28;19916;-84
2022/02/25 20:19:17;;;;;;;;;;;5.90;97.10;;;;;;5057987;28;19920;-86
2022/02/25 20:21:54;;;;;;;;;;;5.80;97.10;;;;;;5060146;28;19912;-86
2022/02/25 20:24:22;;;;;;;;;;;5.80;97.20;;;;;;5089509;28;19976;-87
2022/02/25 20:27:04;;;;;;;;;;;5.70;97.20;;;;;;5100238;28;19901;-86
2022/02/25 20:29:37;;;;;;;;;;;5.60;97.20;;;;;;5097274;28;19903;-88
2022/02/25 20:32:03;;;;;;;;;;;5.50;97.30;;;;;;5094411;28;19920;-87
2022/02/25 20:34:29;;;;;;;;;;;5.50;97.40;;;;;;5083072;28;19908;-87
2022/02/25 20:36:57;;;;;;;;;;;5.40;97.40;;;;;;5075156;28;19909;-87
2022/02/25 20:39:34;;;;;;;;;;;5.40;97.50;;;;;;5067822;28;20359;-86
2022/02/25 20:42:06;;;;;;;;;;;5.30;97.60;;;;;;5073153;28;19908;-87
2022/02/25 20:44:42;;;;;;;;;;;5.30;97.70;;;;;;5058113;28;19920;-87
2022/02/25 20:47:33;;;;;;;;;;;5.30;97.80;;;;;;5075009;28;19986;-86
2022/02/25 20:50:14;;;;;;;;;;;5.30;97.90;;;;;;5059718;28;20281;-87
2022/02/25 20:52:43;;;;;;;;;;;5.30;98.00;;;;;;5091247;28;19908;-87
2022/02/25 20:55:26;;;;;;;;;;;5.30;98.30;;;;;;5095193;28;19915;-87
2022/02/25 20:57:56;;;;;;;;;;;5.30;98.10;;;;;;5095141;28;19909;-87
2022/02/25 21:00:30;;;;;;;;;;;5.30;98.20;;;;;;5080084;28;19912;-88
2022/02/25 21:02:58;;;;;;;;;;;5.40;98.30;;;;;;5074713;28;19908;-87
2022/02/25 21:05:27;;;;;;;;;;;5.30;98.30;;;;;;5074986;28;19925;-86
2022/02/25 21:08:05;;;;;;;;;;;5.30;98.30;;;;;;5057989;28;19929;-86
2022/02/25 21:10:34;;;;;;;;;;;5.30;98.40;;;;;;5080326;28;19920;-87
2022/02/25 21:13:16;;;;;;;;;;;5.20;98.40;;;;;;5086177;28;19912;-86
2022/02/25 21:15:47;;;;;;;;;;;5.20;98.40;;;;;;5075474;28;19915;-87
2022/02/25 21:18:17;;;;;;;;;;;5.20;98.40;;;;;;5059077;28;19920;-88
2022/02/25 21:20:42;;;;;;;;;;;5.10;98.40;;;;;;5077493;28;19916;-87
2022/02/25 21:23:31;;;;;;;;;;;5.10;98.40;;;;;;5094107;28;20288;-87
2022/02/25 21:28:53;;;;;;;;;;;5.00;98.40;;;;;;5098573;28;19908;-86
2022/02/25 21:31:34;;;;;;;;;;;;;;;;;;;;;
2022/02/25 21:34:03;;;;;;;;;;;4.90;98.40;;;;;;5101768;28;20366;-87
2022/02/25 21:36:46;;;;;;;;;;;4.80;98.60;;;;;;5102204;28;19908;-87
2022/02/25 21:39:12;;;;;;;;;;;4.80;98.40;;;;;;5103141;28;19909;-88
2022/02/25 21:41:43;;;;;;;;;;;4.80;98.40;;;;;;5103103;28;19908;-87
2022/02/25 21:44:09;;;;;;;;;;;4.70;98.40;;;;;;5085226;28;19921;-86
2022/02/25 21:46:44;;;;;;;;;;;4.70;98.40;;;;;;5103610;28;19909;-88
2022/02/25 21:49:13;;;;;;;;;;;4.60;98.40;;;;;;5093641;28;19917;-87
2022/02/25 21:51:44;;;;;;;;;;;4.60;98.40;;;;;;5121932;28;19896;-89
2022/02/25 21:54:37;;;;;;;;;;;;;;;;;;;;;
2022/02/25 21:57:08;;;;;;;;;;;4.50;98.50;;;;;;5122275;28;19930;-88
2022/02/25 21:59:46;;;;;;;;;;;;;;;;;;;;;
2022/02/25 22:02:30;;;;;;;;;;;4.40;98.60;;;;;;5082405;28;20019;-87
2022/02/25 22:05:32;;;;;;;;;;;4.40;98.60;;;;;;5077607;28;19966;-87
2022/02/25 22:08:29;;;;;;;;;;;;;;;;;;;;;
2022/02/25 22:11:06;;;;;;;;;;;4.20;98.60;;;;;;5074132;28;19919;-88
2022/02/25 22:13:56;;;;;;;;;;;4.20;98.70;;;;;;5091992;28;20395;-86
2022/02/25 22:16:25;;;;;;;;;;;4.20;98.70;;;;;;5096917;28;19912;-87
2022/02/25 22:19:09;;;;;;;;;;;4.10;98.70;;;;;;5097958;28;19909;-87
2022/02/25 22:21:58;;;;;;;;;;;4.10;98.80;;;;;;5082901;28;20023;-87
2022/02/25 22:24:31;;;;;;;;;;;4.00;98.80;;;;;;5093769;28;20249;-87
2022/02/25 22:29:48;;;;;;;;;;;4.00;98.90;;;;;;5069526;28;19912;-87
2022/02/25 22:32:19;;;;;;;;;;;3.90;98.90;;;;;;5059847;28;19917;-88
2022/02/25 22:34:55;;;;;;;;;;;3.90;98.90;;;;;;5077299;28;19930;-87